createdAt,value
2019-05-19T00:00:26.485Z,980.43
2019-05-19T00:01:26.705Z,980.42
2019-05-19T00:02:26.933Z,980.46
2019-05-19T00:03:27.157Z,980.45
2019-05-19T00:04:27.380Z,980.42
2019-05-19T00:05:27.609Z,980.44
2019-05-19T00:06:27.834Z,980.44
2019-05-19T00:07:28.059Z,980.43
2019-05-19T00:08:28.284Z,980.46
2019-05-19T00:09:28.509Z,980.45
2019-05-19T00:10:28.736Z,980.45
2019-05-19T00:11:28.966Z,980.43
2019-05-19T00:12:29.192Z,980.39
2019-05-19T00:13:29.413Z,980.37
2019-05-19T00:14:29.644Z,980.40
2019-05-19T00:15:29.870Z,980.39
2019-05-19T00:16:30.092Z,980.41
2019-05-19T00:17:30.316Z,980.38
2019-05-19T00:18:30.540Z,980.36
2019-05-19T00:19:30.768Z,980.35
2019-05-19T00:20:30.991Z,980.34
2019-05-19T00:21:31.279Z,980.32
2019-05-19T00:22:31.441Z,980.36
2019-05-19T00:23:31.672Z,980.38
2019-05-19T00:24:31.897Z,980.35
2019-05-19T00:25:32.135Z,980.32
2019-05-19T00:26:32.346Z,980.34
2019-05-19T00:27:32.574Z,980.35
2019-05-19T00:28:32.798Z,980.33
2019-05-19T00:29:33.024Z,980.31
2019-05-19T00:30:33.246Z,980.28
2019-05-19T00:31:33.471Z,980.27
2019-05-19T00:32:33.694Z,980.26
2019-05-19T00:33:33.927Z,980.22
2019-05-19T00:34:34.153Z,980.20
2019-05-19T00:35:34.391Z,980.21
2019-05-19T00:36:34.599Z,980.15
2019-05-19T00:37:34.821Z,980.13
2019-05-19T00:38:35.043Z,980.12
2019-05-19T00:39:35.294Z,980.13
2019-05-19T00:40:35.500Z,980.11
2019-05-19T00:41:35.729Z,980.07
2019-05-19T00:42:35.949Z,980.06
2019-05-19T00:43:36.175Z,980.08
2019-05-19T00:44:36.397Z,980.07
2019-05-19T00:45:36.623Z,980.06
2019-05-19T00:46:36.844Z,980.05
2019-05-19T00:47:37.068Z,980.03
2019-05-19T00:48:37.295Z,980.04
2019-05-19T00:49:41.244Z,980.03
2019-05-19T00:50:37.748Z,980.01
2019-05-19T00:51:37.973Z,980.02
2019-05-19T00:52:38.200Z,980.05
2019-05-19T00:53:38.423Z,980.05
2019-05-19T00:54:38.651Z,980.00
2019-05-19T00:55:38.874Z,980.04
2019-05-19T00:56:39.100Z,980.04
2019-05-19T00:57:39.333Z,979.99
2019-05-19T00:58:39.552Z,979.97
2019-05-19T00:59:39.785Z,979.96
2019-05-19T01:00:40.006Z,979.96
2019-05-19T01:01:40.237Z,979.93
2019-05-19T01:02:40.458Z,979.93
2019-05-19T01:03:40.683Z,979.93
2019-05-19T01:04:40.908Z,979.92
2019-05-19T01:05:41.149Z,979.90
2019-05-19T01:06:41.360Z,979.93
2019-05-19T01:07:41.586Z,979.89
2019-05-19T01:08:41.809Z,979.88
2019-05-19T01:09:42.035Z,979.91
2019-05-19T01:10:42.260Z,979.92
2019-05-19T01:11:42.486Z,979.89
2019-05-19T01:12:42.713Z,979.88
2019-05-19T01:13:42.933Z,979.89
2019-05-19T01:14:43.154Z,979.86
2019-05-19T01:15:43.382Z,979.83
2019-05-19T01:16:43.610Z,979.85
2019-05-19T01:17:43.842Z,979.84
2019-05-19T01:18:44.056Z,979.84
2019-05-19T01:19:55.364Z,979.82
2019-05-19T01:20:44.509Z,979.77
2019-05-19T01:21:44.735Z,979.76
2019-05-19T01:22:44.973Z,979.77
2019-05-19T01:23:45.186Z,979.75
2019-05-19T01:24:45.412Z,979.71
2019-05-19T01:25:45.636Z,979.77
2019-05-19T01:26:45.861Z,979.74
2019-05-19T01:27:46.091Z,979.70
2019-05-19T01:28:46.316Z,979.74
2019-05-19T01:29:46.548Z,979.69
2019-05-19T01:30:46.763Z,979.70
2019-05-19T01:31:46.988Z,979.76
2019-05-19T01:32:47.221Z,979.76
2019-05-19T01:33:47.443Z,979.72
2019-05-19T01:34:47.659Z,979.76
2019-05-19T01:35:47.886Z,979.69
2019-05-19T01:36:48.107Z,979.69
2019-05-19T01:37:48.331Z,979.70
2019-05-19T01:38:48.557Z,979.68
2019-05-19T01:39:48.781Z,979.70
2019-05-19T01:40:49.022Z,979.70
2019-05-19T01:41:49.248Z,979.67
2019-05-19T01:42:49.452Z,979.68
2019-05-19T01:43:49.671Z,979.70
2019-05-19T01:44:49.898Z,979.72
2019-05-19T01:45:50.120Z,979.68
2019-05-19T01:46:50.347Z,979.72
2019-05-19T01:47:50.572Z,979.71
2019-05-19T01:48:50.802Z,979.72
2019-05-19T01:49:51.025Z,979.68
2019-05-19T01:50:51.257Z,979.68
2019-05-19T01:51:51.472Z,979.67
2019-05-19T01:52:51.696Z,979.67
2019-05-19T01:53:51.917Z,979.66
2019-05-19T01:54:52.141Z,979.71
2019-05-19T01:55:52.369Z,979.72
2019-05-19T01:56:52.594Z,979.71
2019-05-19T01:57:52.819Z,979.71
2019-05-19T01:58:53.040Z,979.69
2019-05-19T01:59:53.262Z,979.71
2019-05-19T02:00:53.487Z,979.71
2019-05-19T02:01:53.715Z,979.70
2019-05-19T02:02:53.936Z,979.72
2019-05-19T02:03:54.167Z,979.70
2019-05-19T02:04:54.389Z,979.69
2019-05-19T02:05:54.613Z,979.72
2019-05-19T02:06:54.839Z,979.68
2019-05-19T02:07:55.073Z,979.67
2019-05-19T02:08:55.292Z,979.63
2019-05-19T02:09:55.518Z,979.65
2019-05-19T02:10:55.741Z,979.64
2019-05-19T02:11:55.968Z,979.62
2019-05-19T02:12:56.191Z,979.61
2019-05-19T02:13:56.418Z,979.61
2019-05-19T02:14:56.642Z,979.59
2019-05-19T02:15:56.869Z,979.61
2019-05-19T02:16:57.096Z,979.60
2019-05-19T02:17:57.322Z,979.57
2019-05-19T02:18:57.545Z,979.55
2019-05-19T02:19:57.771Z,979.54
2019-05-19T02:20:57.996Z,979.57
2019-05-19T02:21:58.222Z,979.55
2019-05-19T02:22:58.451Z,979.57
2019-05-19T02:23:58.673Z,979.56
2019-05-19T02:24:58.894Z,979.54
2019-05-19T02:25:59.120Z,979.55
2019-05-19T02:26:59.345Z,979.54
2019-05-19T02:27:59.570Z,979.49
2019-05-19T02:28:59.793Z,979.51
2019-05-19T02:30:00.017Z,979.52
2019-05-19T02:31:00.245Z,979.50
2019-05-19T02:32:00.468Z,979.45
2019-05-19T02:33:00.704Z,979.47
2019-05-19T02:34:00.922Z,979.47
2019-05-19T02:35:01.160Z,979.47
2019-05-19T02:36:01.384Z,979.50
2019-05-19T02:37:01.602Z,979.47
2019-05-19T02:38:01.816Z,979.50
2019-05-19T02:39:02.040Z,979.50
2019-05-19T02:40:02.279Z,979.49
2019-05-19T02:41:02.509Z,979.53
2019-05-19T02:42:02.717Z,979.55
2019-05-19T02:43:02.937Z,979.57
2019-05-19T02:44:03.191Z,979.53
2019-05-19T02:45:03.424Z,979.55
2019-05-19T02:46:03.645Z,979.57
2019-05-19T02:47:03.900Z,979.55
2019-05-19T02:48:04.103Z,979.57
2019-05-19T02:49:04.315Z,979.56
2019-05-19T02:50:04.545Z,979.60
2019-05-19T02:51:04.767Z,979.58
2019-05-19T02:52:04.997Z,979.61
2019-05-19T02:53:05.219Z,979.63
2019-05-19T02:54:05.445Z,979.60
2019-05-19T02:55:05.672Z,979.59
2019-05-19T02:56:05.904Z,979.60
2019-05-19T02:57:06.124Z,979.62
2019-05-19T02:58:06.345Z,979.65
2019-05-19T02:59:06.568Z,979.63
2019-05-19T03:00:06.792Z,979.65
2019-05-19T03:01:07.014Z,979.63
2019-05-19T03:02:07.238Z,979.59
2019-05-19T03:03:07.467Z,979.61
2019-05-19T03:04:07.694Z,979.58
2019-05-19T03:05:07.920Z,979.56
2019-05-19T03:06:08.146Z,979.58
2019-05-19T03:07:08.366Z,979.60
2019-05-19T03:08:08.593Z,979.58
2019-05-19T03:09:08.818Z,979.58
2019-05-19T03:10:09.042Z,979.57
2019-05-19T03:11:09.266Z,979.57
2019-05-19T03:12:09.492Z,979.59
2019-05-19T03:13:09.717Z,979.56
2019-05-19T03:14:09.950Z,979.58
2019-05-19T03:15:10.171Z,979.60
2019-05-19T03:16:10.393Z,979.60
2019-05-19T03:17:10.621Z,979.63
2019-05-19T03:18:10.839Z,979.62
2019-05-19T03:19:11.062Z,979.63
2019-05-19T03:20:11.293Z,979.62
2019-05-19T03:21:12.213Z,979.62
2019-05-19T03:22:11.738Z,979.63
2019-05-19T03:23:11.992Z,979.64
2019-05-19T03:24:12.189Z,979.66
2019-05-19T03:25:12.408Z,979.67
2019-05-19T03:26:12.633Z,979.64
2019-05-19T03:27:12.858Z,979.62
2019-05-19T03:28:13.104Z,979.64
2019-05-19T03:29:13.317Z,979.63
2019-05-19T03:30:13.537Z,979.63
2019-05-19T03:31:13.765Z,979.60
2019-05-19T03:32:14.013Z,979.63
2019-05-19T03:33:14.224Z,979.61
2019-05-19T03:34:14.449Z,979.59
2019-05-19T03:35:14.675Z,979.59
2019-05-19T03:36:14.910Z,979.57
2019-05-19T03:37:15.119Z,979.56
2019-05-19T03:38:15.344Z,979.57
2019-05-19T03:39:15.566Z,979.59
2019-05-19T03:40:15.793Z,979.60
2019-05-19T03:41:16.020Z,979.62
2019-05-19T03:42:16.244Z,979.62
2019-05-19T03:43:16.470Z,979.59
2019-05-19T03:44:16.700Z,979.63
2019-05-19T03:45:16.919Z,979.66
2019-05-19T03:46:17.147Z,979.63
2019-05-19T03:47:17.370Z,979.63
2019-05-19T03:48:17.596Z,979.61
2019-05-19T03:49:17.827Z,979.57
2019-05-19T03:50:18.051Z,979.61
2019-05-19T03:51:30.004Z,979.58
2019-05-19T03:52:18.507Z,979.61
2019-05-19T03:53:18.726Z,979.58
2019-05-19T03:54:18.978Z,979.62
2019-05-19T03:55:19.175Z,979.62
2019-05-19T03:56:19.397Z,979.65
2019-05-19T03:57:19.620Z,979.65
2019-05-19T03:58:19.849Z,979.61
2019-05-19T03:59:20.070Z,979.67
2019-05-19T04:00:20.297Z,979.68
2019-05-19T04:01:20.520Z,979.67
2019-05-19T04:02:20.741Z,979.65
2019-05-19T04:03:20.967Z,979.67
2019-05-19T04:04:21.192Z,979.67
2019-05-19T04:05:21.419Z,979.66
2019-05-19T04:06:21.646Z,979.70
2019-05-19T04:07:21.876Z,979.67
2019-05-19T04:08:22.111Z,979.71
2019-05-19T04:09:22.321Z,979.72
2019-05-19T04:10:22.548Z,979.73
2019-05-19T04:11:22.769Z,979.72
2019-05-19T04:12:22.997Z,979.75
2019-05-19T04:13:23.221Z,979.73
2019-05-19T04:14:23.448Z,979.78
2019-05-19T04:15:23.682Z,979.82
2019-05-19T04:16:23.904Z,979.78
2019-05-19T04:17:24.132Z,979.82
2019-05-19T04:18:24.358Z,979.82
2019-05-19T04:19:24.578Z,979.83
2019-05-19T04:20:24.804Z,979.85
2019-05-19T04:21:25.031Z,979.81
2019-05-19T04:22:25.258Z,979.88
2019-05-19T04:23:25.491Z,979.82
2019-05-19T04:24:25.711Z,979.84
2019-05-19T04:25:25.935Z,979.85
2019-05-19T04:26:26.161Z,979.83
2019-05-19T04:27:26.392Z,979.84
2019-05-19T04:28:26.619Z,979.83
2019-05-19T04:29:26.842Z,979.86
2019-05-19T04:30:27.071Z,979.86
2019-05-19T04:31:27.295Z,979.90
2019-05-19T04:32:27.522Z,979.87
2019-05-19T04:33:27.749Z,979.88
2019-05-19T04:34:27.976Z,979.91
2019-05-19T04:35:28.198Z,979.89
2019-05-19T04:36:28.428Z,979.90
2019-05-19T04:37:28.654Z,979.93
2019-05-19T04:38:28.895Z,979.95
2019-05-19T04:39:29.105Z,979.95
2019-05-19T04:40:29.342Z,979.95
2019-05-19T04:41:29.558Z,979.96
2019-05-19T04:42:29.785Z,979.98
2019-05-19T04:43:30.011Z,979.98
2019-05-19T04:44:30.238Z,979.97
2019-05-19T04:45:30.469Z,979.98
2019-05-19T04:46:30.694Z,979.96
2019-05-19T04:47:30.915Z,979.90
2019-05-19T04:48:31.143Z,979.92
2019-05-19T04:49:31.369Z,979.94
2019-05-19T04:50:31.603Z,979.89
2019-05-19T04:51:31.820Z,979.88
2019-05-19T04:52:32.046Z,979.92
2019-05-19T04:53:32.264Z,979.88
2019-05-19T04:54:32.493Z,979.88
2019-05-19T04:55:32.718Z,979.89
2019-05-19T04:56:32.945Z,979.90
2019-05-19T04:57:33.175Z,979.92
2019-05-19T04:58:33.394Z,979.94
2019-05-19T04:59:33.622Z,979.94
2019-05-19T05:00:33.845Z,979.92
2019-05-19T05:01:34.074Z,979.92
2019-05-19T05:02:34.301Z,979.91
2019-05-19T05:03:34.528Z,979.90
2019-05-19T05:04:34.753Z,979.94
2019-05-19T05:05:34.981Z,979.93
2019-05-19T05:06:35.204Z,979.93
2019-05-19T05:07:35.431Z,979.95
2019-05-19T05:08:35.659Z,979.97
2019-05-19T05:09:35.890Z,979.94
2019-05-19T05:10:36.109Z,979.95
2019-05-19T05:11:36.332Z,979.96
2019-05-19T05:12:36.559Z,979.97
2019-05-19T05:13:36.786Z,979.93
2019-05-19T05:14:37.013Z,979.93
2019-05-19T05:15:37.241Z,979.93
2019-05-19T05:16:37.471Z,979.91
2019-05-19T05:17:37.690Z,979.90
2019-05-19T05:18:37.918Z,979.87
2019-05-19T05:19:38.149Z,979.91
2019-05-19T05:20:38.368Z,979.88
2019-05-19T05:21:38.595Z,979.87
2019-05-19T05:22:38.820Z,979.92
2019-05-19T05:23:39.047Z,979.93
2019-05-19T05:24:39.273Z,979.94
2019-05-19T05:25:39.498Z,979.99
2019-05-19T05:26:39.728Z,980.01
2019-05-19T05:27:39.949Z,979.96
2019-05-19T05:28:40.182Z,979.96
2019-05-19T05:29:40.409Z,979.95
2019-05-19T05:30:40.637Z,979.96
2019-05-19T05:31:40.860Z,980.00
2019-05-19T05:32:41.085Z,980.04
2019-05-19T05:33:41.315Z,980.06
2019-05-19T05:34:41.540Z,980.06
2019-05-19T05:35:41.769Z,980.11
2019-05-19T05:36:41.992Z,980.07
2019-05-19T05:37:42.222Z,980.10
2019-05-19T05:38:42.448Z,980.13
2019-05-19T05:39:42.677Z,980.10
2019-05-19T05:40:42.905Z,980.10
2019-05-19T05:41:43.133Z,980.13
2019-05-19T05:42:43.366Z,980.13
2019-05-19T05:43:43.593Z,980.16
2019-05-19T05:44:43.846Z,980.13
2019-05-19T05:45:44.053Z,980.18
2019-05-19T05:46:44.282Z,980.13
2019-05-19T05:47:44.509Z,980.16
2019-05-19T05:48:44.741Z,980.18
2019-05-19T05:49:44.982Z,980.15
2019-05-19T05:50:45.197Z,980.10
2019-05-19T05:51:45.430Z,980.11
2019-05-19T05:52:45.662Z,980.09
2019-05-19T05:53:45.895Z,980.02
2019-05-19T05:54:46.122Z,980.00
2019-05-19T05:55:46.367Z,980.00
2019-05-19T05:56:46.597Z,980.00
2019-05-19T05:57:46.834Z,979.92
2019-05-19T05:58:47.059Z,979.92
2019-05-19T05:59:47.292Z,979.91
2019-05-19T06:00:47.525Z,979.96
2019-05-19T06:01:47.762Z,979.90
2019-05-19T06:02:47.987Z,979.89
2019-05-19T06:03:48.217Z,979.95
2019-05-19T06:04:48.452Z,979.94
2019-05-19T06:05:48.686Z,979.96
2019-05-19T06:06:48.914Z,979.94
2019-05-19T06:07:49.147Z,979.98
2019-05-19T06:08:49.381Z,980.00
2019-05-19T06:09:49.615Z,980.02
2019-05-19T06:10:49.850Z,980.05
2019-05-19T06:11:50.097Z,980.08
2019-05-19T06:12:50.316Z,980.08
2019-05-19T06:13:50.549Z,980.13
2019-05-19T06:14:50.787Z,980.07
2019-05-19T06:15:51.015Z,980.06
2019-05-19T06:16:51.254Z,980.08
2019-05-19T06:17:51.493Z,980.07
2019-05-19T06:18:51.723Z,980.09
2019-05-19T06:19:51.959Z,980.03
2019-05-19T06:20:52.192Z,980.05
2019-05-19T06:21:52.428Z,980.03
2019-05-19T06:22:57.006Z,980.08
2019-05-19T06:23:52.894Z,980.11
2019-05-19T06:24:53.130Z,980.06
2019-05-19T06:25:53.358Z,980.02
2019-05-19T06:26:53.593Z,980.00
2019-05-19T06:27:53.829Z,979.97
2019-05-19T06:28:54.063Z,980.01
2019-05-19T06:29:54.301Z,980.00
2019-05-19T06:30:54.539Z,979.99
2019-05-19T06:31:54.770Z,980.00
2019-05-19T06:32:55.009Z,979.97
2019-05-19T06:33:55.242Z,979.96
2019-05-19T06:34:55.474Z,979.97
2019-05-19T06:35:55.715Z,979.96
2019-05-19T06:36:55.952Z,980.00
2019-05-19T06:37:56.183Z,979.97
2019-05-19T06:38:56.715Z,979.97
2019-05-19T06:39:56.661Z,979.96
2019-05-19T06:40:56.897Z,979.93
2019-05-19T06:41:57.141Z,979.93
2019-05-19T06:42:57.373Z,979.93
2019-05-19T06:43:57.600Z,979.90
2019-05-19T06:44:57.837Z,979.92
2019-05-19T06:45:58.076Z,979.89
2019-05-19T06:46:58.310Z,979.89
2019-05-19T06:47:58.574Z,979.91
2019-05-19T06:48:58.773Z,979.90
2019-05-19T06:49:59.008Z,979.90
2019-05-19T06:50:59.256Z,979.91
2019-05-19T06:51:59.495Z,979.92
2019-05-19T06:53:13.624Z,979.92
2019-05-19T06:53:59.960Z,979.97
2019-05-19T06:55:00.296Z,979.92
2019-05-19T06:56:00.435Z,979.91
2019-05-19T06:57:00.670Z,979.87
2019-05-19T06:58:00.905Z,979.85
2019-05-19T06:59:01.140Z,979.83
2019-05-19T07:00:01.381Z,979.85
2019-05-19T07:01:01.611Z,979.83
2019-05-19T07:02:01.835Z,979.78
2019-05-19T07:03:02.073Z,979.80
2019-05-19T07:04:02.307Z,979.79
2019-05-19T07:05:02.591Z,979.81
2019-05-19T07:06:02.783Z,979.79
2019-05-19T07:07:03.065Z,979.80
2019-05-19T07:08:03.251Z,979.77
2019-05-19T07:09:03.477Z,979.80
2019-05-19T07:10:03.716Z,979.75
2019-05-19T07:11:03.945Z,979.77
2019-05-19T07:12:04.183Z,979.71
2019-05-19T07:13:04.413Z,979.67
2019-05-19T07:14:04.649Z,979.69
2019-05-19T07:15:04.879Z,979.70
2019-05-19T07:16:05.114Z,979.71
2019-05-19T07:17:05.346Z,979.63
2019-05-19T07:18:05.582Z,979.65
2019-05-19T07:19:05.810Z,979.62
2019-05-19T07:20:06.038Z,979.61
2019-05-19T07:21:06.274Z,979.61
2019-05-19T07:22:06.513Z,979.60
2019-05-19T07:23:06.741Z,979.57
2019-05-19T07:24:06.971Z,979.56
2019-05-19T07:25:07.205Z,979.57
2019-05-19T07:26:07.433Z,979.52
2019-05-19T07:27:07.679Z,979.56
2019-05-19T07:28:07.900Z,979.55
2019-05-19T07:29:08.137Z,979.54
2019-05-19T07:30:08.368Z,979.57
2019-05-19T07:31:08.636Z,979.55
2019-05-19T07:32:08.836Z,979.58
2019-05-19T07:33:09.060Z,979.55
2019-05-19T07:34:09.289Z,979.57
2019-05-19T07:35:09.518Z,979.57
2019-05-19T07:36:09.750Z,979.57
2019-05-19T07:37:09.982Z,979.56
2019-05-19T07:38:10.214Z,979.52
2019-05-19T07:39:10.445Z,979.51
2019-05-19T07:40:10.679Z,979.54
2019-05-19T07:41:10.910Z,979.50
2019-05-19T07:42:11.144Z,979.52
2019-05-19T07:43:11.372Z,979.55
2019-05-19T07:44:11.600Z,979.56
2019-05-19T07:45:11.828Z,979.52
2019-05-19T07:46:12.066Z,979.51
2019-05-19T07:47:12.290Z,979.49
2019-05-19T07:48:12.522Z,979.48
2019-05-19T07:49:12.760Z,979.48
2019-05-19T07:50:12.992Z,979.48
2019-05-19T07:51:13.217Z,979.45
2019-05-19T07:52:13.443Z,979.47
2019-05-19T07:53:13.673Z,979.49
2019-05-19T07:54:13.906Z,979.46
2019-05-19T07:55:14.133Z,979.42
2019-05-19T07:56:14.363Z,979.44
2019-05-19T07:57:14.595Z,979.45
2019-05-19T07:58:14.823Z,979.44
2019-05-19T07:59:15.062Z,979.46
2019-05-19T08:00:15.290Z,979.43
2019-05-19T08:01:15.526Z,979.41
2019-05-19T08:02:15.752Z,979.42
2019-05-19T08:03:15.981Z,979.40
2019-05-19T08:04:16.215Z,979.38
2019-05-19T08:05:16.445Z,979.38
2019-05-19T08:06:16.675Z,979.41
2019-05-19T08:07:16.906Z,979.44
2019-05-19T08:08:17.138Z,979.40
2019-05-19T08:09:17.371Z,979.41
2019-05-19T08:10:17.601Z,979.41
2019-05-19T08:11:17.831Z,979.36
2019-05-19T08:12:18.064Z,979.35
2019-05-19T08:13:18.347Z,979.34
2019-05-19T08:14:18.480Z,979.32
2019-05-19T08:15:18.702Z,979.29
2019-05-19T08:16:18.949Z,979.28
2019-05-19T08:17:19.183Z,979.31
2019-05-19T08:18:19.404Z,979.30
2019-05-19T08:19:19.636Z,979.30
2019-05-19T08:20:19.868Z,979.29
2019-05-19T08:21:20.209Z,979.27
2019-05-19T08:22:20.328Z,979.24
2019-05-19T08:23:20.560Z,979.25
2019-05-19T08:24:20.794Z,979.26
2019-05-19T08:25:21.035Z,979.26
2019-05-19T08:26:21.254Z,979.22
2019-05-19T08:27:21.485Z,979.22
2019-05-19T08:28:21.719Z,979.27
2019-05-19T08:29:21.952Z,979.26
2019-05-19T08:30:22.195Z,979.25
2019-05-19T08:31:22.481Z,979.21
2019-05-19T08:32:22.673Z,979.21
2019-05-19T08:33:22.909Z,979.16
2019-05-19T08:34:23.135Z,979.17
2019-05-19T08:35:23.368Z,979.18
2019-05-19T08:36:23.601Z,979.15
2019-05-19T08:37:23.831Z,979.20
2019-05-19T08:38:24.062Z,979.22
2019-05-19T08:39:24.301Z,979.19
2019-05-19T08:40:24.528Z,979.22
2019-05-19T08:41:24.768Z,979.17
2019-05-19T08:42:25.009Z,979.19
2019-05-19T08:43:25.231Z,979.24
2019-05-19T08:44:25.466Z,979.19
2019-05-19T08:45:25.696Z,979.15
2019-05-19T08:46:25.927Z,979.17
2019-05-19T08:47:26.156Z,979.19
2019-05-19T08:48:26.404Z,979.16
2019-05-19T08:49:26.673Z,979.15
2019-05-19T08:50:26.853Z,979.17
2019-05-19T08:51:27.079Z,979.13
2019-05-19T08:52:27.305Z,979.15
2019-05-19T08:53:27.535Z,979.14
2019-05-19T08:54:27.766Z,979.12
2019-05-19T08:55:27.998Z,979.11
2019-05-19T08:56:28.230Z,979.11
2019-05-19T08:57:28.464Z,979.10
2019-05-19T08:58:28.694Z,979.10
2019-05-19T08:59:28.925Z,979.05
2019-05-19T09:00:29.161Z,979.07
2019-05-19T09:01:29.393Z,979.00
2019-05-19T09:02:29.623Z,979.01
2019-05-19T09:03:29.856Z,979.04
2019-05-19T09:04:30.085Z,979.03
2019-05-19T09:05:30.324Z,979.02
2019-05-19T09:06:30.552Z,979.02
2019-05-19T09:07:30.788Z,979.01
2019-05-19T09:08:31.023Z,979.04
2019-05-19T09:09:31.255Z,979.01
2019-05-19T09:10:31.487Z,979.01
2019-05-19T09:11:31.731Z,978.99
2019-05-19T09:12:31.960Z,979.01
2019-05-19T09:13:32.184Z,978.98
2019-05-19T09:14:32.421Z,979.02
2019-05-19T09:15:32.666Z,979.00
2019-05-19T09:16:32.891Z,978.97
2019-05-19T09:17:33.134Z,978.99
2019-05-19T09:18:33.353Z,978.91
2019-05-19T09:19:33.586Z,978.97
2019-05-19T09:20:33.810Z,978.94
2019-05-19T09:21:34.043Z,979.00
2019-05-19T09:22:34.270Z,979.07
2019-05-19T09:23:34.500Z,978.99
2019-05-19T09:24:37.271Z,978.95
2019-05-19T09:25:34.961Z,978.91
2019-05-19T09:26:35.215Z,978.92
2019-05-19T09:27:35.425Z,978.92
2019-05-19T09:28:35.653Z,978.91
2019-05-19T09:29:35.881Z,978.91
2019-05-19T09:30:36.118Z,978.88
2019-05-19T09:31:36.392Z,978.90
2019-05-19T09:32:36.578Z,978.83
2019-05-19T09:33:36.810Z,978.90
2019-05-19T09:34:37.047Z,978.92
2019-05-19T09:35:37.281Z,978.90
2019-05-19T09:36:37.516Z,978.84
2019-05-19T09:37:37.781Z,978.82
2019-05-19T09:38:38.008Z,978.84
2019-05-19T09:39:38.235Z,978.83
2019-05-19T09:40:38.473Z,978.86
2019-05-19T09:41:38.710Z,978.86
2019-05-19T09:42:38.938Z,978.86
2019-05-19T09:43:39.170Z,978.84
2019-05-19T09:44:39.405Z,978.86
2019-05-19T09:45:39.633Z,978.83
2019-05-19T09:46:39.863Z,978.79
2019-05-19T09:47:40.109Z,978.82
2019-05-19T09:48:40.325Z,978.87
2019-05-19T09:49:40.556Z,978.82
2019-05-19T09:50:40.791Z,978.84
2019-05-19T09:51:41.024Z,978.79
2019-05-19T09:52:41.266Z,978.81
2019-05-19T09:53:41.485Z,978.84
2019-05-19T09:54:45.255Z,978.83
2019-05-19T09:55:41.945Z,978.84
2019-05-19T09:56:42.175Z,978.82
2019-05-19T09:57:42.406Z,978.79
2019-05-19T09:58:42.632Z,978.80
2019-05-19T09:59:42.874Z,978.79
2019-05-19T10:00:43.107Z,978.82
2019-05-19T10:01:43.338Z,978.79
2019-05-19T10:02:43.573Z,978.80
2019-05-19T10:03:43.804Z,978.77
2019-05-19T10:04:44.037Z,978.81
2019-05-19T10:05:44.270Z,978.79
2019-05-19T10:06:44.536Z,978.73
2019-05-19T10:07:44.726Z,978.82
2019-05-19T10:08:44.960Z,978.83
2019-05-19T10:09:45.191Z,978.83
2019-05-19T10:10:45.423Z,978.83
2019-05-19T10:11:45.650Z,978.77
2019-05-19T10:12:45.888Z,978.81
2019-05-19T10:13:46.127Z,978.82
2019-05-19T10:14:46.357Z,978.83
2019-05-19T10:15:46.585Z,978.82
2019-05-19T10:16:46.816Z,978.80
2019-05-19T10:17:47.049Z,978.80
2019-05-19T10:18:47.282Z,978.71
2019-05-19T10:19:47.515Z,978.74
2019-05-19T10:20:50.346Z,978.72
2019-05-19T10:21:47.972Z,978.72
2019-05-19T10:22:48.211Z,978.75
2019-05-19T10:23:48.440Z,978.75
2019-05-19T10:25:03.851Z,978.75
2019-05-19T10:25:48.907Z,978.75
2019-05-19T10:26:49.141Z,978.73
2019-05-19T10:27:49.375Z,978.74
2019-05-19T10:28:49.610Z,978.71
2019-05-19T10:29:49.837Z,978.72
2019-05-19T10:30:50.081Z,978.71
2019-05-19T10:31:54.124Z,978.74
2019-05-19T10:32:50.545Z,978.70
2019-05-19T10:33:50.774Z,978.71
2019-05-19T10:34:51.011Z,978.67
2019-05-19T10:35:51.254Z,978.67
2019-05-19T10:36:51.527Z,978.66
2019-05-19T10:37:51.709Z,978.63
2019-05-19T10:38:51.932Z,978.60
2019-05-19T10:39:52.414Z,978.58
2019-05-19T10:40:52.445Z,978.59
2019-05-19T10:41:52.676Z,978.59
2019-05-19T10:42:52.911Z,978.57
2019-05-19T10:43:53.146Z,978.67
2019-05-19T10:44:53.379Z,978.61
2019-05-19T10:45:53.656Z,978.66
2019-05-19T10:46:53.849Z,978.61
2019-05-19T10:47:54.078Z,978.57
2019-05-19T10:48:54.315Z,978.57
2019-05-19T10:49:54.549Z,978.55
2019-05-19T10:50:54.772Z,978.56
2019-05-19T10:51:55.004Z,978.56
2019-05-19T10:52:55.240Z,978.62
2019-05-19T10:53:55.473Z,978.52
2019-05-19T10:54:55.710Z,978.53
2019-05-19T10:55:55.939Z,978.48
2019-05-19T10:56:56.172Z,978.49
2019-05-19T10:57:56.406Z,978.43
2019-05-19T10:58:56.639Z,978.46
2019-05-19T10:59:56.872Z,978.43
2019-05-19T11:00:57.105Z,978.47
2019-05-19T11:01:57.342Z,978.44
2019-05-19T11:02:57.579Z,978.48
2019-05-19T11:03:57.810Z,978.46
2019-05-19T11:04:58.050Z,978.41
2019-05-19T11:05:58.279Z,978.46
2019-05-19T11:06:58.513Z,978.45
2019-05-19T11:07:58.753Z,978.39
2019-05-19T11:08:58.984Z,978.44
2019-05-19T11:09:59.209Z,978.42
2019-05-19T11:10:59.448Z,978.40
2019-05-19T11:11:59.678Z,978.39
2019-05-19T11:12:59.910Z,978.38
2019-05-19T11:14:00.144Z,978.33
2019-05-19T11:15:00.373Z,978.39
2019-05-19T11:16:00.608Z,978.36
2019-05-19T11:17:00.845Z,978.39
2019-05-19T11:18:01.075Z,978.37
2019-05-19T11:19:01.307Z,978.31
2019-05-19T11:20:01.933Z,978.29
2019-05-19T11:21:01.789Z,978.28
2019-05-19T11:22:02.007Z,978.30
2019-05-19T11:23:02.239Z,978.28
2019-05-19T11:24:02.480Z,978.26
2019-05-19T11:25:02.704Z,978.24
2019-05-19T11:26:02.937Z,978.26
2019-05-19T11:27:03.169Z,978.25
2019-05-19T11:28:03.411Z,978.24
2019-05-19T11:29:03.645Z,978.25
2019-05-19T11:30:03.865Z,978.24
2019-05-19T11:31:04.101Z,978.21
2019-05-19T11:32:04.333Z,978.27
2019-05-19T11:33:04.568Z,978.23
2019-05-19T11:34:04.801Z,978.32
2019-05-19T11:35:05.035Z,978.27
2019-05-19T11:36:05.267Z,978.26
2019-05-19T11:37:07.446Z,978.23
2019-05-19T11:38:05.735Z,978.28
2019-05-19T11:39:05.969Z,978.23
2019-05-19T11:40:06.201Z,978.19
2019-05-19T11:41:06.434Z,978.19
2019-05-19T11:42:06.669Z,978.23
2019-05-19T11:43:06.904Z,978.26
2019-05-19T11:44:07.138Z,978.27
2019-05-19T11:45:07.375Z,978.29
2019-05-19T11:46:07.606Z,978.22
2019-05-19T11:47:07.849Z,978.19
2019-05-19T11:48:08.082Z,978.22
2019-05-19T11:49:08.315Z,978.22
2019-05-19T11:50:08.552Z,978.22
2019-05-19T11:51:08.783Z,978.24
2019-05-19T11:52:09.020Z,978.21
2019-05-19T11:53:09.257Z,978.18
2019-05-19T11:54:09.486Z,978.20
2019-05-19T11:55:09.721Z,978.18
2019-05-19T11:56:11.524Z,978.26
2019-05-19T11:57:10.187Z,978.22
2019-05-19T11:58:10.421Z,978.24
2019-05-19T11:59:10.654Z,978.23
2019-05-19T12:00:10.882Z,978.21
2019-05-19T12:01:11.122Z,978.26
2019-05-19T12:02:11.348Z,978.24
2019-05-19T12:03:11.580Z,978.23
2019-05-19T12:04:11.814Z,978.21
2019-05-19T12:05:12.048Z,978.21
2019-05-19T12:06:12.288Z,978.21
2019-05-19T12:07:12.519Z,978.24
2019-05-19T12:08:12.753Z,978.28
2019-05-19T12:09:12.989Z,978.30
2019-05-19T12:10:13.224Z,978.27
2019-05-19T12:11:13.471Z,978.29
2019-05-19T12:12:13.703Z,978.25
2019-05-19T12:13:13.941Z,978.30
2019-05-19T12:14:14.173Z,978.28
2019-05-19T12:15:14.407Z,978.24
2019-05-19T12:16:14.641Z,978.25
2019-05-19T12:17:14.878Z,978.26
2019-05-19T12:18:15.113Z,978.25
2019-05-19T12:19:15.347Z,978.26
2019-05-19T12:20:15.584Z,978.30
2019-05-19T12:21:15.823Z,978.24
2019-05-19T12:22:16.064Z,978.24
2019-05-19T12:23:16.292Z,978.24
2019-05-19T12:24:16.530Z,978.20
2019-05-19T12:25:16.738Z,978.16
2019-05-19T12:26:23.276Z,978.16
2019-05-19T12:27:17.207Z,978.19
2019-05-19T12:28:17.440Z,978.25
2019-05-19T12:29:17.679Z,978.20
2019-05-19T12:30:17.909Z,978.22
2019-05-19T12:31:18.139Z,978.19